Time;durP1;ratioP1;P1;durP2;ratioP2;P2;SDS_P1;SDS_P2;PMS_P1;PMS_P2;Temp;Humidity;BMP_temperature;BMP_pressure;BME280_temperature;BME280_humidity;BME280_pressure;Samples;Min_cycle;Max_cycle;Signal;HPM_P1;HPM_P2
2021/12/12 00:00:53;;;;;;;12.40;5.17;;;5.00;99.90;;;;;;5041743;28;20993;-77
2021/12/12 00:03:33;;;;;;;13.53;5.60;;;5.00;99.90;;;;;;5039156;28;21189;-80
2021/12/12 00:06:01;;;;;;;10.87;5.73;;;4.90;99.90;;;;;;5036699;28;20457;-79
2021/12/12 00:08:29;;;;;;;12.40;6.10;;;4.90;99.90;;;;;;5041991;28;20471;-80
2021/12/12 00:10:59;;;;;;;10.50;5.47;;;4.90;99.90;;;;;;5040874;28;20452;-80
2021/12/12 00:13:31;;;;;;;10.90;4.47;;;4.90;99.90;;;;;;5048520;28;20484;-80
2021/12/12 00:15:58;;;;;;;8.63;4.57;;;5.00;99.90;;;;;;5046681;28;20473;-79
2021/12/12 00:18:25;;;;;;;7.00;4.33;;;5.00;99.90;;;;;;5044601;28;20456;-81
2021/12/12 00:20:53;;;;;;;10.50;5.93;;;5.00;99.90;;;;;;5069534;28;20483;-81
2021/12/12 00:23:20;;;;;;;11.97;4.07;;;5.10;99.90;;;;;;5055212;28;20504;-83
2021/12/12 00:25:50;;;;;;;13.00;4.83;;;5.00;99.90;;;;;;5045262;28;20453;-81
2021/12/12 00:28:19;;;;;;;9.77;5.83;;;5.00;99.90;;;;;;5043753;28;20540;-81
2021/12/12 00:30:48;;;;;;;8.13;4.40;;;5.00;99.90;;;;;;5038915;28;20459;-81
2021/12/12 00:33:15;;;;;;;9.43;5.60;;;5.10;99.90;;;;;;5032699;28;20500;-81
2021/12/12 00:35:43;;;;;;;9.53;4.20;;;5.10;99.90;;;;;;5045388;28;20521;-82
2021/12/12 00:38:13;;;;;;;9.73;4.57;;;5.10;99.90;;;;;;5036149;28;20523;-83
2021/12/12 00:40:44;;;;;;;10.47;4.10;;;5.00;99.90;;;;;;5030765;28;20490;-82
2021/12/12 00:43:18;;;;;;;10.13;4.40;;;5.10;99.90;;;;;;5049362;28;20471;-80
2021/12/12 00:45:45;;;;;;;10.40;6.60;;;5.00;99.90;;;;;;5055809;28;20465;-81
2021/12/12 00:48:13;;;;;;;11.40;3.83;;;5.00;99.90;;;;;;5042124;28;20450;-80
2021/12/12 00:50:42;;;;;;;12.97;4.57;;;5.00;99.90;;;;;;5054784;28;20448;-79
2021/12/12 00:53:11;;;;;;;12.63;3.97;;;5.00;99.90;;;;;;5044440;28;20484;-79
2021/12/12 00:55:40;;;;;;;17.10;4.83;;;5.00;99.90;;;;;;5039927;28;20454;-79
2021/12/12 00:58:10;;;;;;;10.23;3.43;;;4.90;99.90;;;;;;5048288;28;20448;-81
2021/12/12 01:00:43;;;;;;;6.47;3.40;;;5.00;99.90;;;;;;5047067;28;20494;-81
2021/12/12 01:03:11;;;;;;;12.33;3.67;;;4.90;99.90;;;;;;5040567;28;20560;-81
2021/12/12 01:05:40;;;;;;;8.27;3.93;;;5.00;99.90;;;;;;5046705;28;20460;-80
2021/12/12 01:08:10;;;;;;;13.33;3.73;;;4.90;99.90;;;;;;5048763;28;20535;-80
2021/12/12 01:10:40;;;;;;;7.17;3.70;;;4.90;99.90;;;;;;5051766;28;20537;-78
2021/12/12 01:13:09;;;;;;;6.37;3.53;;;5.00;99.90;;;;;;5053551;28;20474;-82
2021/12/12 01:15:39;;;;;;;10.60;3.77;;;5.00;99.90;;;;;;5038594;28;20455;-79
2021/12/12 01:18:08;;;;;;;7.83;4.43;;;5.00;99.90;;;;;;5051203;28;20456;-80
2021/12/12 01:20:40;;;;;;;7.23;3.20;;;5.00;99.90;;;;;;5052052;28;20515;-80
2021/12/12 01:23:11;;;;;;;8.20;2.90;;;5.10;99.90;;;;;;5059467;28;20483;-83
2021/12/12 01:25:44;;;;;;;5.50;3.40;;;5.00;99.90;;;;;;5045243;28;20480;-80
2021/12/12 01:28:12;;;;;;;7.87;2.53;;;5.00;99.90;;;;;;5038718;28;20458;-80
2021/12/12 01:30:39;;;;;;;5.40;2.80;;;5.10;99.90;;;;;;5037463;28;20449;-80
2021/12/12 01:33:09;;;;;;;10.60;2.57;;;5.10;99.90;;;;;;5037527;28;20570;-82
2021/12/12 01:35:36;;;;;;;7.80;3.50;;;5.10;99.90;;;;;;5038825;28;20460;-78
2021/12/12 01:40:57;;;;;;;9.53;3.00;;;5.20;99.90;;;;;;5036968;28;20481;-81
2021/12/12 01:43:27;;;;;;;9.03;3.90;;;5.20;99.90;;;;;;5037376;28;20479;-79
2021/12/12 01:46:00;;;;;;;7.50;3.80;;;5.30;99.90;;;;;;5037800;28;20946;-79
2021/12/12 01:48:32;;;;;;;7.37;3.70;;;5.30;99.90;;;;;;5037650;28;20457;-81
2021/12/12 01:51:01;;;;;;;11.13;3.60;;;5.30;99.90;;;;;;5030988;28;20455;-82
2021/12/12 01:53:34;;;;;;;9.67;2.90;;;5.30;99.90;;;;;;5037390;28;20474;-79
2021/12/12 01:56:07;;;;;;;10.70;3.43;;;5.30;99.90;;;;;;5032247;28;20486;-81
2021/12/12 01:58:38;;;;;;;5.47;3.40;;;5.40;99.90;;;;;;5040769;28;20454;-80
2021/12/12 02:01:09;;;;;;;6.43;3.40;;;5.30;99.90;;;;;;5041287;28;20521;-79
2021/12/12 02:03:39;;;;;;;7.57;4.50;;;5.40;99.90;;;;;;5043830;28;20523;-80
2021/12/12 02:06:09;;;;;;;7.67;3.17;;;5.30;99.90;;;;;;5023576;28;20457;-81
2021/12/12 02:08:38;;;;;;;6.73;2.83;;;5.30;99.90;;;;;;5038851;28;20462;-80
2021/12/12 02:11:09;;;;;;;10.50;3.30;;;5.40;99.90;;;;;;5037153;28;20451;-81
2021/12/12 02:13:39;;;;;;;7.77;2.90;;;5.40;99.90;;;;;;5038502;28;20477;-80
2021/12/12 02:16:07;;;;;;;5.90;2.80;;;5.40;99.90;;;;;;5034403;28;20451;-80
2021/12/12 02:18:38;;;;;;;6.93;2.80;;;5.50;99.90;;;;;;5038341;28;20449;-84
2021/12/12 02:21:16;;;;;;;7.37;2.97;;;5.50;99.90;;;;;;5037887;28;20539;-81
2021/12/12 02:24:16;;;;;;;11.87;3.07;;;5.50;99.90;;;;;;5022794;28;20477;-81
2021/12/12 02:35:15;;;;;;;7.63;3.13;;;5.50;99.90;;;;;;5037969;28;20437;-83
2021/12/12 02:37:43;;;;;;;7.70;2.83;;;5.50;99.90;;;;;;5035518;28;20466;-79
2021/12/12 02:40:18;;;;;;;7.47;2.80;;;5.50;99.90;;;;;;5037572;28;20450;-80
2021/12/12 02:42:46;;;;;;;5.30;2.30;;;5.60;99.90;;;;;;5037011;28;20497;-81
2021/12/12 02:45:17;;;;;;;9.13;2.37;;;5.50;99.90;;;;;;5037937;28;20459;-79
2021/12/12 02:47:47;;;;;;;6.43;2.43;;;5.60;99.90;;;;;;5037957;28;20452;-80
2021/12/12 02:50:18;;;;;;;7.33;2.23;;;5.60;99.90;;;;;;5038360;28;20460;-79
2021/12/12 02:52:51;;;;;;;5.77;2.37;;;5.60;99.90;;;;;;5037910;28;20801;-78
2021/12/12 02:55:23;;;;;;;8.37;3.17;;;5.60;99.90;;;;;;5037012;28;20452;-79
2021/12/12 02:57:53;;;;;;;4.90;2.40;;;5.70;99.90;;;;;;5037821;28;20455;-79
2021/12/12 03:00:24;;;;;;;8.97;3.87;;;5.70;99.90;;;;;;5040168;28;20541;-79
2021/12/12 03:02:57;;;;;;;5.40;2.67;;;5.60;99.90;;;;;;5056380;28;20503;-81
2021/12/12 03:05:27;;;;;;;4.77;2.50;;;5.70;99.90;;;;;;5059005;28;20514;-80
2021/12/12 03:07:55;;;;;;;9.70;3.13;;;5.70;99.90;;;;;;5050008;28;20443;-80
2021/12/12 03:10:27;;;;;;;7.47;2.37;;;5.80;99.90;;;;;;5046467;28;20460;-83
2021/12/12 03:12:55;;;;;;;9.93;2.40;;;5.70;99.90;;;;;;5047032;28;20490;-81
2021/12/12 03:15:25;;;;;;;7.63;2.70;;;5.70;99.90;;;;;;5045102;28;20454;-81
2021/12/12 03:18:00;;;;;;;11.20;3.07;;;5.80;99.90;;;;;;5044876;28;20993;-83
2021/12/12 03:20:32;;;;;;;10.37;3.03;;;5.80;99.90;;;;;;5043840;28;20459;-81
2021/12/12 03:23:01;;;;;;;6.77;2.97;;;5.80;99.90;;;;;;5043365;28;20491;-80
2021/12/12 03:25:33;;;;;;;7.57;2.60;;;5.80;99.90;;;;;;5043404;28;20541;-81
2021/12/12 03:28:00;;;;;;;8.10;2.70;;;5.80;99.90;;;;;;5042553;28;20456;-79
2021/12/12 03:30:27;;;;;;;7.03;2.67;;;5.80;99.90;;;;;;5043235;28;20458;-82
2021/12/12 03:32:53;;;;;;;9.30;2.70;;;5.80;99.90;;;;;;5043361;28;20865;-80
2021/12/12 03:35:20;;;;;;;9.00;2.73;;;5.80;99.90;;;;;;5043063;28;21725;-80
2021/12/12 03:37:47;;;;;;;5.90;2.97;;;5.80;99.90;;;;;;5043362;28;20462;-80
2021/12/12 03:40:18;;;;;;;7.33;2.87;;;5.90;99.90;;;;;;5042877;28;20540;-80
2021/12/12 03:42:50;;;;;;;5.83;2.87;;;5.90;99.90;;;;;;5041495;28;20500;-83
2021/12/12 03:45:17;;;;;;;8.23;2.63;;;5.90;99.90;;;;;;5041938;28;20460;-79
2021/12/12 03:47:50;;;;;;;7.70;2.20;;;5.90;99.90;;;;;;5041739;28;20980;-80
2021/12/12 03:50:27;;;;;;;8.50;3.43;;;6.00;99.90;;;;;;5040765;28;20453;-79
2021/12/12 03:52:55;;;;;;;6.67;2.63;;;5.90;99.90;;;;;;5041401;28;20561;-79
2021/12/12 03:55:24;;;;;;;10.13;2.57;;;6.00;99.90;;;;;;5040979;28;20455;-79
2021/12/12 03:57:52;;;;;;;5.17;2.40;;;5.90;99.90;;;;;;5028917;28;20457;-80
2021/12/12 04:00:23;;;;;;;4.67;2.67;;;5.90;99.90;;;;;;5029327;28;20462;-80
2021/12/12 04:02:50;;;;;;;8.43;2.90;;;6.00;99.90;;;;;;5040961;28;20496;-82
2021/12/12 04:05:17;;;;;;;8.23;3.20;;;5.90;99.90;;;;;;5042243;28;20495;-79
2021/12/12 04:07:44;;;;;;;9.60;2.70;;;5.80;99.90;;;;;;5041085;28;20466;-82
2021/12/12 04:10:16;;;;;;;5.73;2.53;;;5.90;99.90;;;;;;5039693;28;20459;-80
2021/12/12 04:12:44;;;;;;;5.77;2.13;;;5.90;99.90;;;;;;5042499;28;20470;-78
2021/12/12 04:15:12;;;;;;;9.80;2.60;;;5.90;99.90;;;;;;5042151;28;20489;-80
2021/12/12 04:17:40;;;;;;;7.20;2.70;;;5.90;99.90;;;;;;5040427;28;20481;-83
2021/12/12 04:20:11;;;;;;;6.70;2.60;;;5.80;99.90;;;;;;5040331;28;20453;-81
2021/12/12 04:22:37;;;;;;;7.23;2.87;;;5.80;99.90;;;;;;5037727;28;20493;-79
2021/12/12 04:25:06;;;;;;;14.27;3.13;;;5.80;99.90;;;;;;5039546;28;20560;-81
2021/12/12 04:27:33;;;;;;;6.13;2.23;;;5.80;99.90;;;;;;5042402;28;20458;-79
2021/12/12 04:30:05;;;;;;;7.97;2.20;;;5.80;99.90;;;;;;5042410;28;20454;-79
2021/12/12 04:32:34;;;;;;;9.67;2.90;;;5.80;99.90;;;;;;5040376;28;20479;-80
2021/12/12 04:35:06;;;;;;;9.13;2.70;;;5.70;99.90;;;;;;5041236;28;20869;-80
2021/12/12 04:37:34;;;;;;;9.20;2.90;;;5.70;99.90;;;;;;5039831;28;21012;-79
2021/12/12 04:40:01;;;;;;;6.47;3.40;;;5.70;99.90;;;;;;5038552;28;20461;-79
2021/12/12 04:42:31;;;;;;;8.33;2.53;;;5.70;99.90;;;;;;5045092;28;20497;-79
2021/12/12 04:45:12;;;;;;;6.87;2.57;;;5.70;99.90;;;;;;5051906;28;20534;-84
2021/12/12 04:50:37;;;;;;;9.37;3.67;;;5.70;99.90;;;;;;5042670;28;20443;-82
2021/12/12 04:53:09;;;;;;;5.57;2.60;;;5.70;99.90;;;;;;5042359;28;20479;-82
2021/12/12 04:55:45;;;;;;;7.50;2.73;;;5.70;99.90;;;;;;5042054;28;20456;-80
2021/12/12 04:58:17;;;;;;;4.97;2.80;;;5.70;99.90;;;;;;5027870;28;20450;-83
2021/12/12 05:00:55;;;;;;;10.43;3.50;;;5.70;99.90;;;;;;5032158;28;20458;-80
2021/12/12 05:03:29;;;;;;;7.03;3.30;;;5.70;99.90;;;;;;5037982;28;20498;-81
2021/12/12 05:06:00;;;;;;;7.53;2.60;;;5.70;99.90;;;;;;5036161;28;20462;-80
2021/12/12 05:08:34;;;;;;;10.30;2.47;;;5.70;99.90;;;;;;5038591;28;20458;-79
2021/12/12 05:11:05;;;;;;;8.70;2.53;;;5.70;99.90;;;;;;5025907;28;20914;-79
2021/12/12 05:13:37;;;;;;;7.80;2.70;;;5.70;99.90;;;;;;5038073;28;20473;-79
2021/12/12 05:16:10;;;;;;;9.63;2.80;;;5.70;99.90;;;;;;5034135;28;20451;-78
2021/12/12 05:18:48;;;;;;;5.00;2.20;;;5.70;99.90;;;;;;5037714;28;20940;-79
2021/12/12 05:21:17;;;;;;;7.50;3.70;;;5.80;99.90;;;;;;5037109;28;20480;-82
2021/12/12 05:23:47;;;;;;;6.87;3.00;;;5.80;99.90;;;;;;5036656;28;20474;-80
2021/12/12 05:26:18;;;;;;;9.33;2.60;;;5.70;99.90;;;;;;5038603;28;20538;-82
2021/12/12 05:28:50;;;;;;;9.43;3.27;;;5.70;99.90;;;;;;5037475;28;20966;-82
2021/12/12 05:31:21;;;;;;;8.60;3.20;;;5.70;99.90;;;;;;5035736;28;20544;-81
2021/12/12 05:33:52;;;;;;;8.57;3.70;;;5.70;99.90;;;;;;5035560;28;20474;-82
2021/12/12 05:36:20;;;;;;;7.20;3.43;;;5.60;99.90;;;;;;5041406;28;20472;-82
2021/12/12 05:38:47;;;;;;;8.67;4.40;;;5.50;99.90;;;;;;5042563;28;20464;-81
2021/12/12 05:41:18;;;;;;;6.40;3.20;;;5.60;99.90;;;;;;5042332;28;20455;-80
2021/12/12 05:43:45;;;;;;;9.23;3.20;;;5.50;99.90;;;;;;5042064;28;20493;-81
2021/12/12 05:46:15;;;;;;;9.50;4.10;;;5.60;99.90;;;;;;5043818;28;20453;-81
2021/12/12 05:48:43;;;;;;;12.13;4.10;;;5.60;99.90;;;;;;5042586;28;20462;-81
2021/12/12 05:51:11;;;;;;;8.90;3.63;;;5.60;99.90;;;;;;5027842;28;20455;-81
2021/12/12 05:53:39;;;;;;;6.53;3.50;;;5.60;99.90;;;;;;5040289;28;20922;-79
2021/12/12 05:56:07;;;;;;;12.10;2.90;;;5.60;99.90;;;;;;5041889;28;20454;-79
2021/12/12 05:58:34;;;;;;;14.50;4.57;;;5.60;99.90;;;;;;5038961;28;20547;-83
2021/12/12 06:01:06;;;;;;;11.40;4.13;;;5.60;99.90;;;;;;5033318;28;20953;-80
2021/12/12 06:03:37;;;;;;;11.50;4.30;;;5.60;99.90;;;;;;5035818;28;20487;-80
2021/12/12 06:06:06;;;;;;;11.60;4.67;;;5.60;99.90;;;;;;5017313;28;20582;-79
2021/12/12 06:08:35;;;;;;;9.87;4.10;;;5.60;99.90;;;;;;5032120;28;20458;-82
2021/12/12 06:11:03;;;;;;;7.77;3.60;;;5.50;99.90;;;;;;5037323;28;20468;-81
2021/12/12 06:13:31;;;;;;;9.77;3.77;;;5.50;99.90;;;;;;5037548;28;20479;-84
2021/12/12 06:16:00;;;;;;;9.83;3.87;;;5.50;99.90;;;;;;5035619;28;20447;-79
2021/12/12 06:18:29;;;;;;;9.07;4.30;;;5.50;99.90;;;;;;5034007;28;20460;-80
2021/12/12 06:20:56;;;;;;;7.80;4.27;;;5.50;99.90;;;;;;5035820;28;20454;-80
2021/12/12 06:23:24;;;;;;;9.20;4.00;;;5.50;99.90;;;;;;5035787;28;20490;-80
2021/12/12 06:25:53;;;;;;;11.97;3.90;;;5.50;99.90;;;;;;5035626;28;20466;-80
2021/12/12 06:28:24;;;;;;;14.63;4.60;;;5.50;99.90;;;;;;5035710;28;20460;-79
2021/12/12 06:30:51;;;;;;;7.10;3.47;;;5.60;99.90;;;;;;5035449;28;20449;-80
2021/12/12 06:33:18;;;;;;;10.97;3.77;;;5.60;99.90;;;;;;5034734;28;20554;-80
2021/12/12 06:35:45;;;;;;;8.43;4.00;;;5.60;99.90;;;;;;5019341;28;20453;-80
2021/12/12 06:38:14;;;;;;;9.50;3.57;;;5.50;99.90;;;;;;5032493;28;20466;-79
2021/12/12 06:40:42;;;;;;;7.27;4.73;;;5.60;99.90;;;;;;5035259;28;20461;-80
2021/12/12 06:43:15;;;;;;;6.23;3.80;;;5.60;99.90;;;;;;5035555;28;20491;-79
2021/12/12 06:45:42;;;;;;;8.90;4.13;;;5.60;99.90;;;;;;5036328;28;20456;-80
2021/12/12 06:48:11;;;;;;;6.70;4.17;;;5.70;99.90;;;;;;5035866;28;20461;-80
2021/12/12 06:50:40;;;;;;;6.73;3.40;;;5.60;99.90;;;;;;5048767;28;20453;-78
2021/12/12 06:53:07;;;;;;;9.63;4.40;;;5.60;99.90;;;;;;5053959;28;20524;-79
2021/12/12 06:55:36;;;;;;;9.50;4.57;;;5.60;99.90;;;;;;5046142;28;20454;-78
2021/12/12 06:58:06;;;;;;;6.90;4.17;;;5.60;99.90;;;;;;5034556;28;20459;-80
2021/12/12 07:00:35;;;;;;;6.70;3.67;;;5.70;99.90;;;;;;5034391;28;20466;-81
2021/12/12 07:03:02;;;;;;;9.00;3.63;;;5.70;99.90;;;;;;5034114;28;20503;-80
2021/12/12 07:05:31;;;;;;;5.27;3.10;;;5.70;99.90;;;;;;5033546;28;20460;-80
2021/12/12 07:07:59;;;;;;;7.90;3.70;;;5.80;99.90;;;;;;5033261;28;20459;-79
2021/12/12 07:10:29;;;;;;;6.70;3.63;;;5.80;99.90;;;;;;5036404;28;20456;-82
2021/12/12 07:12:57;;;;;;;4.97;3.20;;;5.80;99.90;;;;;;5037237;28;20473;-83
2021/12/12 07:15:28;;;;;;;3.80;2.80;;;5.90;99.90;;;;;;5037444;28;20458;-82
2021/12/12 07:17:57;;;;;;;5.80;3.27;;;5.90;99.90;;;;;;5021255;28;20466;-82
2021/12/12 07:20:25;;;;;;;7.17;3.60;;;5.90;99.90;;;;;;5023579;28;20455;-84
2021/12/12 07:22:53;;;;;;;6.27;3.20;;;5.90;99.90;;;;;;5039511;28;20494;-85
2021/12/12 07:25:21;;;;;;;8.60;2.87;;;6.00;99.90;;;;;;5040790;28;20459;-84
2021/12/12 07:27:51;;;;;;;5.87;3.43;;;5.90;99.90;;;;;;5042597;28;20545;-84
2021/12/12 07:30:18;;;;;;;4.87;2.60;;;6.00;99.90;;;;;;5038987;28;20456;-82
2021/12/12 07:32:45;;;;;;;3.37;1.90;;;6.00;99.90;;;;;;5038351;28;20562;-85
2021/12/12 07:35:15;;;;;;;4.33;2.60;;;6.00;99.90;;;;;;5039569;28;20465;-81
2021/12/12 07:37:43;;;;;;;6.07;1.93;;;6.00;99.90;;;;;;5038477;28;20440;-84
2021/12/12 07:40:11;;;;;;;2.77;2.10;;;6.00;99.90;;;;;;5038270;28;20456;-83
2021/12/12 07:42:40;;;;;;;5.37;2.33;;;6.00;99.90;;;;;;5038039;28;20491;-83
2021/12/12 07:45:08;;;;;;;2.87;1.77;;;6.10;99.90;;;;;;5019063;28;20450;-83
2021/12/12 07:47:35;;;;;;;3.90;2.30;;;6.10;99.90;;;;;;5021087;28;20455;-83
2021/12/12 07:50:06;;;;;;;4.20;2.30;;;6.10;99.90;;;;;;5021284;28;20835;-83
2021/12/12 07:52:34;;;;;;;4.30;2.37;;;6.20;99.90;;;;;;5022618;28;20509;-83
2021/12/12 07:55:02;;;;;;;3.47;2.00;;;6.20;99.90;;;;;;5023037;28;20456;-84
2021/12/12 07:57:31;;;;;;;5.40;2.00;;;6.10;99.90;;;;;;5022864;28;20460;-84
2021/12/12 07:59:59;;;;;;;4.57;2.13;;;6.20;99.90;;;;;;5033812;28;21046;-84
2021/12/12 08:02:28;;;;;;;5.10;2.60;;;6.20;99.90;;;;;;5041673;28;20499;-82
2021/12/12 08:04:56;;;;;;;3.93;2.17;;;6.20;99.90;;;;;;5036957;28;20451;-84
2021/12/12 08:07:24;;;;;;;2.60;1.70;;;6.20;99.90;;;;;;5048456;28;20454;-85
2021/12/12 08:09:53;;;;;;;3.83;2.40;;;6.20;99.90;;;;;;5023128;28;20524;-84
2021/12/12 08:12:26;;;;;;;4.70;2.80;;;6.30;99.90;;;;;;5050683;28;20471;-84
2021/12/12 08:14:54;;;;;;;3.23;2.13;;;6.30;99.90;;;;;;5037551;28;20468;-84
2021/12/12 08:17:22;;;;;;;3.03;2.27;;;6.40;99.90;;;;;;5043625;28;20980;-86
2021/12/12 08:19:49;;;;;;;4.43;2.33;;;6.40;99.90;;;;;;5041946;28;20546;-83
2021/12/12 08:22:17;;;;;;;3.70;2.50;;;6.40;99.90;;;;;;5043998;28;20468;-84
2021/12/12 08:24:44;;;;;;;5.80;2.20;;;6.40;99.90;;;;;;5043849;28;21193;-83
2021/12/12 08:27:13;;;;;;;6.70;2.00;;;6.40;99.90;;;;;;5043841;28;20486;-84
2021/12/12 08:29:42;;;;;;;3.90;2.03;;;6.40;99.90;;;;;;5042497;28;20483;-84
2021/12/12 08:32:12;;;;;;;3.70;2.70;;;6.30;99.90;;;;;;5041864;28;20476;-84
2021/12/12 08:34:39;;;;;;;5.40;2.80;;;6.40;99.90;;;;;;5041662;28;20452;-84
2021/12/12 08:37:07;;;;;;;2.80;1.80;;;6.40;99.90;;;;;;5042431;28;20474;-84
2021/12/12 08:39:34;;;;;;;4.40;2.67;;;6.50;99.90;;;;;;5043256;28;20471;-84
2021/12/12 08:42:04;;;;;;;4.20;2.43;;;6.50;99.90;;;;;;5041937;28;20468;-84
2021/12/12 08:44:35;;;;;;;3.43;2.20;;;6.60;99.90;;;;;;5042338;28;20481;-84
2021/12/12 08:47:03;;;;;;;3.17;2.30;;;6.60;99.90;;;;;;5043390;28;20456;-85
2021/12/12 08:49:32;;;;;;;3.73;2.07;;;6.60;99.90;;;;;;5042233;28;20456;-85
2021/12/12 08:52:06;;;;;;;3.20;2.23;;;6.70;99.90;;;;;;5021762;28;20503;-85
2021/12/12 08:54:35;;;;;;;3.10;2.33;;;6.70;99.90;;;;;;5021162;28;20438;-85
2021/12/12 08:57:06;;;;;;;3.30;2.10;;;6.70;99.90;;;;;;5022004;28;20463;-84
2021/12/12 08:59:37;;;;;;;4.73;1.97;;;6.70;99.90;;;;;;5022169;28;20511;-83
2021/12/12 09:02:07;;;;;;;5.10;4.60;;;6.80;99.90;;;;;;5021918;28;20484;-84
2021/12/12 09:04:51;;;;;;;4.13;2.33;;;6.70;99.90;;;;;;5025421;28;20489;-84
2021/12/12 09:07:21;;;;;;;3.63;2.30;;;6.70;99.90;;;;;;5042968;28;20452;-85
2021/12/12 09:09:53;;;;;;;3.17;2.57;;;6.80;99.90;;;;;;5044648;28;20550;-83
2021/12/12 09:12:22;;;;;;;5.20;2.77;;;6.80;99.90;;;;;;5043487;28;20472;-85
2021/12/12 09:14:53;;;;;;;3.90;2.50;;;6.90;99.90;;;;;;5042876;28;20460;-85
2021/12/12 09:17:25;;;;;;;3.17;2.50;;;6.90;99.90;;;;;;5042335;28;20527;-85
2021/12/12 09:19:56;;;;;;;3.57;2.60;;;7.00;99.90;;;;;;5043262;28;20536;-85
2021/12/12 09:22:28;;;;;;;6.87;2.93;;;6.90;99.90;;;;;;5043131;28;20515;-85
2021/12/12 09:25:00;;;;;;;4.13;2.67;;;6.90;99.90;;;;;;5043002;28;20440;-85
2021/12/12 09:27:33;;;;;;;2.93;2.40;;;7.00;99.90;;;;;;5046449;28;20455;-85
2021/12/12 09:30:07;;;;;;;5.97;2.80;;;7.00;99.90;;;;;;5041564;28;20471;-84
2021/12/12 09:32:38;;;;;;;3.47;2.47;;;7.00;99.90;;;;;;5041431;28;20567;-84
2021/12/12 09:35:10;;;;;;;3.20;2.40;;;7.00;99.90;;;;;;5041926;28;20479;-85
2021/12/12 09:37:40;;;;;;;3.70;2.83;;;7.00;99.90;;;;;;5042621;28;20486;-85
2021/12/12 09:40:23;;;;;;;4.10;2.80;;;7.10;99.90;;;;;;5049220;28;20456;-84
2021/12/12 09:43:04;;;;;;;4.03;3.00;;;7.10;99.90;;;;;;5050585;28;20498;-84
2021/12/12 09:45:45;;;;;;;3.23;2.03;;;7.20;99.90;;;;;;5049190;28;20444;-87
2021/12/12 09:51:35;;;;;;;5.00;3.10;;;7.10;99.90;;;;;;5051216;28;20442;-85
2021/12/12 09:54:17;;;;;;;5.27;2.90;;;7.20;99.90;;;;;;5057955;28;20442;-84
2021/12/12 09:56:50;;;;;;;3.20;2.80;;;7.10;99.90;;;;;;5059685;28;20446;-83
2021/12/12 09:59:28;;;;;;;3.70;2.70;;;7.20;99.90;;;;;;5035347;28;20446;-84
2021/12/12 10:02:15;;;;;;;5.93;3.17;;;7.20;99.90;;;;;;5032707;28;20468;-85
2021/12/12 10:04:53;;;;;;;4.33;3.63;;;7.20;99.90;;;;;;5042279;28;20575;-84
2021/12/12 10:07:30;;;;;;;7.23;4.63;;;7.10;99.90;;;;;;5039297;28;20444;-85
2021/12/12 10:10:00;;;;;;;6.50;3.67;;;7.20;99.90;;;;;;5032321;28;20440;-85
2021/12/12 10:12:30;;;;;;;6.67;3.57;;;7.20;99.90;;;;;;5031899;28;20475;-83
2021/12/12 10:15:07;;;;;;;5.00;4.10;;;7.20;99.90;;;;;;5030083;28;21006;-85
2021/12/12 10:17:42;;;;;;;5.87;4.57;;;7.30;99.90;;;;;;5029560;28;20452;-84
2021/12/12 10:20:13;;;;;;;6.30;5.07;;;7.30;99.90;;;;;;5029551;28;20523;-84
2021/12/12 10:22:55;;;;;;;6.57;4.90;;;7.30;99.90;;;;;;5028595;28;20563;-85
2021/12/12 10:25:25;;;;;;;9.97;5.07;;;7.40;99.90;;;;;;5030876;28;20446;-86
2021/12/12 10:27:58;;;;;;;6.13;5.10;;;7.40;99.90;;;;;;5031102;28;20825;-84
2021/12/12 10:30:29;;;;;;;10.97;5.73;;;7.40;99.90;;;;;;5029098;28;20449;-84
2021/12/12 10:33:10;;;;;;;6.93;4.97;;;7.40;99.90;;;;;;5025655;28;20559;-85
2021/12/12 10:35:42;;;;;;;6.00;5.40;;;7.40;99.90;;;;;;5025718;28;20464;-83
2021/12/12 10:38:14;;;;;;;5.87;4.70;;;7.50;99.90;;;;;;5028813;28;20493;-84
2021/12/12 10:40:48;;;;;;;6.00;5.40;;;7.50;99.90;;;;;;5031172;28;20464;-84
2021/12/12 10:43:22;;;;;;;6.53;5.30;;;7.50;99.90;;;;;;5032707;28;20495;-83
2021/12/12 10:45:55;;;;;;;9.07;5.67;;;7.60;99.90;;;;;;5027828;28;20528;-83
2021/12/12 10:48:29;;;;;;;6.73;4.90;;;7.50;99.90;;;;;;5020361;28;20830;-84
2021/12/12 10:51:02;;;;;;;8.87;5.60;;;7.60;99.90;;;;;;5029167;28;20449;-83
2021/12/12 10:53:35;;;;;;;7.17;5.90;;;7.60;99.90;;;;;;5024952;28;20484;-84
2021/12/12 10:56:06;;;;;;;7.13;5.13;;;7.60;99.90;;;;;;5029023;28;20897;-84
2021/12/12 10:58:38;;;;;;;7.70;5.57;;;7.50;99.90;;;;;;5030220;28;20456;-84
2021/12/12 11:01:11;;;;;;;8.40;5.00;;;7.60;99.90;;;;;;5026492;28;20968;-83
2021/12/12 11:03:45;;;;;;;9.10;5.10;;;7.60;99.90;;;;;;5032352;28;21242;-83
2021/12/12 11:06:16;;;;;;;5.73;4.37;;;7.70;99.90;;;;;;5029615;28;20448;-81
2021/12/12 11:08:48;;;;;;;6.20;5.03;;;7.70;99.90;;;;;;5027777;28;20490;-83
2021/12/12 11:11:18;;;;;;;7.40;3.83;;;7.70;99.90;;;;;;5026015;28;20471;-83
2021/12/12 11:13:51;;;;;;;10.90;5.37;;;7.70;99.90;;;;;;5035282;28;20469;-83
2021/12/12 11:16:30;;;;;;;8.40;5.20;;;7.70;99.90;;;;;;5024725;28;20442;-83
2021/12/12 11:19:06;;;;;;;7.37;4.27;;;7.70;99.90;;;;;;5026053;28;20515;-82
2021/12/12 11:21:37;;;;;;;4.03;3.63;;;7.80;99.90;;;;;;5030855;28;21029;-82
2021/12/12 11:24:14;;;;;;;4.73;3.73;;;7.80;99.90;;;;;;5035070;28;21046;-83
2021/12/12 11:26:44;;;;;;;5.40;3.83;;;7.80;99.90;;;;;;5030977;28;20452;-83
2021/12/12 11:29:15;;;;;;;4.53;3.43;;;7.90;99.90;;;;;;5032875;28;20973;-82
2021/12/12 11:31:52;;;;;;;5.37;3.73;;;7.90;99.90;;;;;;5032869;28;20539;-83
2021/12/12 11:34:24;;;;;;;3.87;2.90;;;7.90;99.90;;;;;;5034133;28;20495;-82
2021/12/12 11:37:08;;;;;;;6.73;2.87;;;8.10;99.90;;;;;;5034976;28;20448;-83
2021/12/12 11:39:44;;;;;;;5.90;3.67;;;8.00;99.90;;;;;;5032193;28;20480;-83
2021/12/12 11:42:28;;;;;;;7.43;3.20;;;7.90;99.90;;;;;;5031714;28;20453;-82
2021/12/12 11:45:04;;;;;;;3.70;2.97;;;7.90;99.90;;;;;;5036351;28;20491;-83
2021/12/12 11:47:53;;;;;;;5.10;3.00;;;7.90;99.90;;;;;;5034780;28;20539;-84
2021/12/12 11:50:30;;;;;;;2.93;2.33;;;7.90;99.90;;;;;;5035606;28;20449;-82
2021/12/12 11:53:02;;;;;;;3.90;3.07;;;8.00;99.90;;;;;;5033984;28;20600;-83
2021/12/12 11:55:35;;;;;;;5.50;3.70;;;7.90;99.90;;;;;;5034083;28;20437;-82
2021/12/12 11:58:07;;;;;;;3.30;2.80;;;8.00;99.90;;;;;;5026214;28;20449;-82
2021/12/12 12:00:38;;;;;;;5.03;2.40;;;8.00;99.90;;;;;;5023474;28;20451;-81
2021/12/12 12:03:23;;;;;;;3.90;2.90;;;8.10;99.90;;;;;;5024495;28;20854;-82
2021/12/12 12:05:59;;;;;;;4.20;3.40;;;8.10;99.90;;;;;;5026120;28;20446;-82
2021/12/12 12:08:34;;;;;;;4.50;3.03;;;8.10;99.90;;;;;;5025901;28;20425;-82
2021/12/12 12:11:11;;;;;;;3.97;2.40;;;8.10;99.90;;;;;;5035711;28;20459;-82
2021/12/12 12:13:54;;;;;;;4.80;3.20;;;8.20;99.90;;;;;;5038940;28;20460;-83
2021/12/12 12:16:34;;;;;;;4.13;2.70;;;8.20;99.90;;;;;;5040187;28;20527;-83
2021/12/12 12:19:06;;;;;;;2.93;2.50;;;8.10;99.90;;;;;;5040578;28;20747;-84
2021/12/12 12:21:43;;;;;;;4.20;2.63;;;8.10;99.90;;;;;;5031815;28;20536;-81
2021/12/12 12:24:19;;;;;;;3.17;2.57;;;8.30;99.90;;;;;;5028303;28;20576;-81
2021/12/12 12:26:55;;;;;;;5.30;2.57;;;8.20;99.90;;;;;;5030289;28;20533;-81
2021/12/12 12:30:07;;;;;;;2.67;2.20;;;8.20;99.90;;;;;;5035078;28;20442;-81
2021/12/12 12:33:10;;;;;;;3.47;2.43;;;8.30;99.90;;;;;;5037030;28;20475;-80
2021/12/12 12:36:15;;;;;;;3.50;2.07;;;8.40;99.90;;;;;;5019297;28;20450;-80
2021/12/12 12:39:29;;;;;;;4.00;3.00;;;8.40;99.90;;;;;;5025757;28;20452;-80
2021/12/12 12:42:34;;;;;;;4.33;2.83;;;8.30;99.90;;;;;;4982144;28;20727;-81
2021/12/12 12:45:42;;;;;;;4.27;2.13;;;8.40;99.90;;;;;;5041634;28;20491;-81
2021/12/12 12:48:46;;;;;;;3.30;2.53;;;8.40;99.90;;;;;;4988381;28;20456;-81
2021/12/12 12:51:27;;;;;;;5.93;3.37;;;8.40;99.90;;;;;;5029909;28;20454;-80
2021/12/12 12:54:17;;;;;;;4.87;2.70;;;8.40;99.90;;;;;;5033802;28;20469;-80
2021/12/12 12:57:21;;;;;;;3.73;2.63;;;8.40;99.90;;;;;;5033533;28;20503;-81
2021/12/12 13:00:11;;;;;;;3.70;2.73;;;8.40;99.90;;;;;;5041499;28;20460;-80
2021/12/12 13:03:22;;;;;;;2.93;2.53;;;8.40;99.90;;;;;;5040656;28;20504;-81
2021/12/12 13:06:27;;;;;;;4.30;2.30;;;8.40;99.90;;;;;;5005573;28;20496;-81
2021/12/12 13:09:28;;;;;;;3.87;3.20;;;8.40;99.90;;;;;;5042586;28;20453;-81
2021/12/12 13:12:17;;;;;;;3.30;2.63;;;8.40;99.90;;;;;;5042417;28;20469;-81
2021/12/12 13:14:51;;;;;;;3.60;3.10;;;8.30;99.90;;;;;;5034666;28;20460;-81
2021/12/12 13:17:27;;;;;;;3.23;2.80;;;8.30;99.90;;;;;;5044180;28;20478;-81
2021/12/12 13:20:11;;;;;;;4.63;2.93;;;8.30;99.90;;;;;;5043739;28;20516;-81
2021/12/12 13:22:49;;;;;;;3.70;3.00;;;8.40;99.90;;;;;;5042725;28;20480;-81
2021/12/12 13:25:22;;;;;;;4.43;3.10;;;8.40;99.90;;;;;;5043502;28;20503;-82
2021/12/12 13:28:05;;;;;;;4.13;2.83;;;8.40;99.90;;;;;;5044291;28;20452;-81
2021/12/12 13:30:42;;;;;;;4.00;3.23;;;8.40;99.90;;;;;;5043944;28;20964;-81
2021/12/12 13:33:21;;;;;;;4.00;2.80;;;8.40;99.90;;;;;;5045641;28;20467;-81
2021/12/12 13:36:02;;;;;;;3.10;2.67;;;8.40;99.90;;;;;;5025592;28;20540;-80
2021/12/12 13:38:40;;;;;;;4.00;3.20;;;8.40;99.90;;;;;;5028815;28;20899;-81
2021/12/12 13:41:13;;;;;;;4.03;2.93;;;8.40;99.90;;;;;;5043977;28;20868;-81